Аэропорт: Павлодар. Павлодар

ICAO: UASP

METAR:
2019/05/26 14:00
UASP 261400Z 31004MPS CAVOK 12/M05 Q1026 R21/0///70 NOSIG RMK QFE758/1011
METAR:
2018/05/04 03:06
TAF TAF UASP 040200Z 0403/041209 14012MPS 9999 BKN020CB OVC100 
      TEMPO 0403/0406 12017MPS 3100 -SHRA SCT010 OVC020CB 
      TEMPO 0406/0412 17020MPS 3100 -SHRA BKN006 OVC020CB